Tiempo atmosférico en la estación meteorológica de Puerto El Pico, Ávila (1285 m.)



Fecha
DESCASC
Temp. máxima en grados centígrados (hora)
DESCASC
Temp. mínima en grados centígrados (hora)
DESCASC
Temp. media en grados centígrados
DESCASC
Racha de viento máxima en m/sg (hora)
DESCASC
Velocidad máxima media en intervalos de 10 minutos(hora)
DESCASC
Precipitaciones diarias en mm
DESCASC
Precipitaciones de 00:00 a 06:00 en mm
DESCASC
Precipitaciones de 06:00 a 12:00 en mm
DESCASC
Precipitaciones de 12:00 a 18:00 en mm
DESCASC
Precipitaciones de 18:00 a 24:00 en mm
DESCASC
31-03-2020 4.2 (17:20) -2.1 (01:10) 1 6.67 (19:20) 3.61 (04:30) 21 0.2 2.6 4.6 13.6
30-03-2020 5.4 (00:50) -2.1 (22:40) 1.7 6.39 (11:10) 3.89 (11:10) 2.2 0 0.4 1 0.8
29-03-2020 14.2 (16:40) -4.8 (-00:0) 4.7 8.06 (16:10) 4.72 (15:20) 0 0 0 0 0
28-03-2020 11.6 (16:10) -6.6 (-00:0) 2.5 8.33 (15:10) 4.17 (13:50) 0 0 0 0 0
27-03-2020 6.8 (17:20) -5.2 (-00:0) 0.8 7.5 (18:20) 3.89 (17:30) 0 0 0 0 0
26-03-2020 12.4 (14:10) -1.9 (-00:0) 5.2 12.5 (08:40) 7.22 (08:40) 0 0 0 0 0
25-03-2020 12.8 (16:10) 1.9 (00:00) 7.4 12.5 (16:40) 7.22 (16:40) 0 0 0 0 0
24-03-2020 9.5 (13:10) 4 (00:00) 6.8 7.22 (13:50) 4.72 (09:20) 3 0.8 2.2 0 0
23-03-2020 8.5 (16:50) 3 (00:00) 5.8 9.72 (15:00) 4.17 (15:00) 6 0.8 0.8 4.2 0.2
22-03-2020 10 (13:50) -1 (00:20) 4.5 6.94 (15:10) 4.17 (15:10) 2.2 0 0.2 0.8 1.2
21-03-2020 6.3 (15:00) -1.5 (-00:0) 2.4 11.67 (01:30) 5.28 (01:30) 15.8 3.8 9.6 2.4 0
20-03-2020 7.1 (20:30) 2.3 (00:00) 4.7 9.17 (22:30) 4.17 (10:10) 0.2 0 0 0.2 0
19-03-2020 11.4 (16:00) 1.3 (00:00) 6.3 6.11 (16:40) 3.33 (10:50) 0 0 0 0 0
18-03-2020 14.5 (14:00) 1.8 (00:00) 8.1 6.67 (12:00) 4.72 (11:50) 0 0 0 0 0
17-03-2020 11.4 (16:10) -4.7 (-00:0) 3.3 8.89 (16:30) 3.89 (16:30) 1 0 0.6 0 0.4
16-03-2020 2.4 (00:00) -1.1 (-00:0) 0.7 15.83 (10:50) 8.89 (10:50) 6.8 0 0 4.2 2.6
15-03-2020 13.7 (15:10) -2.9 (-00:0) 5.4 11.39 (20:30) 5.83 (23:00) 1 0 0 1 0
14-03-2020 17.5 (16:30) -0.9 (-00:0) 8.3 7.5 (16:50) 4.17 (13:40) 0 0 0 0 0
13-03-2020 16.5 (14:20) -0.4 (08:00) 8 8.61 (14:40) 5.56 (13:50) 0 0 0 0 0
12-03-2020 20.6 (13:40) 2 (00:00) 11.3 8.89 (17:40) 4.72 (14:10) 0 0 0 0 0
11-03-2020 21.6 (15:30) 0.7 (00:00) 11.2 10.56 (14:50) 5.56 (14:50) 0 0 0 0 0
10-03-2020 21.5 (16:30) 0.5 (00:00) 11 7.78 (13:50) 4.72 (13:10) 0 0 0 0 0
09-03-2020 14.2 (13:20) 1.4 (00:00) 7.8 9.72 (14:40) 6.67 (13:40) 0 0 0 0 0
08-03-2020 15.2 (12:20) -7.8 (-00:0) 3.7 9.72 (13:30) 6.39 (14:50) 0 0 0 0 0
07-03-2020 11.7 (13:30) -3 (-00:0) 4.3 12.22 (00:50) 7.5 (03:00) 0 0 0 0 0
06-03-2020 6.9 (16:40) 1.3 (00:00) 4.1 18.06 (10:00) 10.56 (12:30) 0.4 0.4 0 0 0
05-03-2020 -- (--) -- (--) -- -- (--) -- (--) -- 0 1.2 0 --
04-03-2020 13.4 (14:30) 4.4 (00:00) 8.9 11.11 (10:10) 4.17 (11:30) 0 0 0 0 0
03-03-2020 11.4 (16:20) 1 (00:00) 6.2 14.72 (12:30) 7.22 (16:40) 0 0 0 0 0

Gráficas

Temp. máximas Temp. mínimas Temp. medias Precipitaciones Rachas de viento máximas Velocidades máximas media en intervalos de 10 minutos

Datos horarios

Fecha y hora oficial Temperatura (ºC) Velocidad del viento (km/h) Dirección del viento Racha (km/h) Dirección de racha Precipitación (mm) Presión (hPa) Tendencia (hPa) Humedad (%)
2020-04-01 23:00:00 -2 3 Sudoeste 12 Sur 0 -- -- 97
2020-04-01 22:00:00 -0.1 3 Norte 10 Sur 0 -- -- 92
2020-04-01 21:00:00 2.9 7 Sur 18 Sur 0 -- -- 81
2020-04-01 20:00:00 4.7 10 Sur 27 Sudoeste 0 -- -- 72
2020-04-01 19:00:00 7.9 14 Sur 25 Sudoeste 0 -- -- 58
2020-04-01 18:00:00 8.2 12 Sur 26 Sudeste 0 -- -- 60
2020-04-01 17:00:00 7.7 11 Sudoeste 24 Sudoeste 0 -- -- 64
2020-04-01 16:00:00 7.5 14 Sudoeste 24 Sur 0 -- -- 59
2020-04-01 15:00:00 6.7 16 Sur 30 Sur 0 -- -- 68
2020-04-01 14:00:00 5.6 16 Sur 32 Sudoeste 0 -- -- 81
2020-04-01 13:00:00 5.1 15 Sur 29 Sur 0 -- -- 87
2020-04-01 12:00:00 3.8 13 Sur 24 Sudoeste 0 -- -- 94
2020-04-01 11:00:00 3.2 12 Sur 23 Sur 0 -- -- 98
2020-04-01 10:00:00 2.3 9 Sur 21 Sur 0.2 -- -- 100
2020-04-01 09:00:00 2.3 9 Sur 18 Sur 0 -- -- 100
2020-04-01 08:00:00 1.4 5 Sudoeste 15 Sudoeste 0 -- -- 100
2020-04-01 07:00:00 2.1 5 Sur 23 Sur 0 -- -- 100
2020-04-01 06:00:00 2.9 13 Sur 33 Sudoeste 0 -- -- 100
2020-04-01 05:00:00 3 12 Sur 26 Sur 0 -- -- 99
2020-04-01 04:00:00 3 10 Sur 28 Sudoeste 0 -- -- 100
2020-04-01 03:00:00 3.1 10 Sur 21 Sur 0 -- -- 100
2020-04-01 02:00:00 2.4 6 Sudoeste 14 Sur 0 -- -- 100
2020-04-01 01:00:00 0.8 0 Calma 8 Sur 0 -- -- 99
2020-04-01 00:00:00 0.8 0 Calma 9 Nordeste 0.8 -- -- 99
2020-03-31 23:00:00 0.8 5 Sur 9 Nordeste 2 -- -- 99
2020-03-31 22:00:00 1.2 6 Este 13 Norte 0.2 -- -- 99
2020-03-31 21:00:00 1.3 3 Sur 13 Norte 0.4 -- -- 98
2020-03-31 20:00:00 1.7 5 Sudeste 24 Sudoeste 5.8 -- -- 96
2020-03-31 19:00:00 3.1 10 Sur 18 Sur 4.4 -- -- 97
2020-03-31 18:00:00 3.5 0 Calma 6 Sudeste 0.4 -- -- 96
2020-03-31 17:00:00 3.8 0 Calma 5 Nordeste 0.2 -- -- 94
2020-03-31 16:00:00 3.4 0 Calma 10 Norte 0.4 -- -- 92
2020-03-31 15:00:00 2.4 2 Nordeste 5 Nordeste 1.2 -- -- 91
2020-03-31 14:00:00 2.1 2 Nordeste 10 Norte 1.8 -- -- 88
2020-03-31 13:00:00 1.5 6 Norte 12 Norte 0.6 -- -- 90
2020-03-31 12:00:00 1.1 8 Norte 17 Nordeste 0.2 -- -- 90
2020-03-31 11:00:00 1.2 8 Este 15 Nordeste 0.8 -- -- 85
2020-03-31 10:00:00 0.4 0 Calma 4 Nordeste 0.8 -- -- 91
2020-03-31 09:00:00 -1.4 0 Calma 9 Norte 0.4 -- -- 96
2020-03-31 08:00:00 -1.9 4 Norte 9 Norte 0.2 -- -- 96
2020-03-31 07:00:00 -2 6 Norte 19 Norte 0.2 -- -- 96
2020-03-31 06:00:00 -2.1 11 Norte 18 Norte 0 -- -- 96
2020-03-31 05:00:00 -2.1 8 Norte 19 Norte 0 -- -- 96
2020-03-31 04:00:00 -2.1 9 Noroeste 15 Norte 0 -- -- 96
2020-03-31 03:00:00 -2.1 6 Noroeste 19 Norte 0 -- -- 96
2020-03-31 02:00:00 -2.1 8 Norte 19 Norte 0.2 -- -- 96
2020-03-31 01:00:00 -2 8 Noroeste 18 Noroeste 0 -- -- 95
2020-03-31 00:00:00 -2 6 Noroeste 14 Noroeste 0 -- -- 95
2020-03-30 23:00:00 -2 4 Noroeste 13 Norte 0.2 -- -- 95
2020-03-30 22:00:00 -2 6 Norte 18 Norte 0 -- -- 95
2020-03-30 21:00:00 -1.9 8 Norte 18 Nordeste 0.2 -- -- 95
2020-03-30 20:00:00 -1.4 6 Norte 17 Nordeste 0.2 -- -- 94
2020-03-30 19:00:00 -1.2 9 Nordeste 20 Nordeste 0.2 -- -- 91
2020-03-30 18:00:00 -0.8 11 Nordeste 20 Nordeste 0 -- -- 92
2020-03-30 17:00:00 0.2 9 Nordeste 16 Nordeste 0 -- -- 86
2020-03-30 16:00:00 0 10 Nordeste 16 Este 0 -- -- 86
2020-03-30 15:00:00 -0.2 8 Nordeste 20 Nordeste 0 -- -- 90
2020-03-30 14:00:00 -0.1 9 Nordeste 16 Norte 0.2 -- -- 94
2020-03-30 13:00:00 0.2 7 Norte 12 Norte 0.8 -- -- 95
2020-03-30 12:00:00 0 10 Norte 23 Norte 0.4 -- -- 94
2020-03-30 11:00:00 0.7 14 Norte 18 Norte 0 -- -- 85
2020-03-30 10:00:00 1.1 11 Norte 16 Norte 0 -- -- 85
2020-03-30 09:00:00 1.3 8 Norte 16 Norte 0 -- -- 87
2020-03-30 08:00:00 1.3 8 Norte 17 Norte 0 -- -- 88
2020-03-30 07:00:00 1.8 10 Norte 19 Norte 0 -- -- 88
2020-03-30 06:00:00 0.8 3 Nordeste 11 Norte 0 -- -- 86
2020-03-30 05:00:00 3 2 Norte 5 Norte 0 -- -- 83
2020-03-30 04:00:00 3 0 Calma 5 Nordeste 0 -- -- 84
2020-03-30 03:00:00 2.9 0 Calma 3 Norte 0 -- -- 84
2020-03-30 02:00:00 3.1 0 Calma 9 Sudeste 0 -- -- 81
2020-03-30 01:00:00 4.8 3 Sur 9 Nordeste 0 -- -- 76
2020-03-30 00:00:00 5.1 3 Sur 5 Sur 0 -- -- 76
2020-03-29 23:00:00 5.1 4 Sur 6 Sur 0 -- -- 75
2020-03-29 22:00:00 4.6 4 Sur 8 Sudoeste 0 -- -- 76
2020-03-29 21:00:00 7.2 3 Sudoeste 11 Sur 0 -- -- 69
2020-03-29 20:00:00 9.2 8 Sur 21 Sur 0 -- -- 59
2020-03-29 19:00:00 10.4 11 Sur 25 Sudoeste 0 -- -- 55
2020-03-29 18:00:00 13.1 14 Sur 28 Sudoeste 0 -- -- 46
2020-03-29 17:00:00 14.2 15 Sudoeste 29 Sur 0 -- -- 42
2020-03-29 16:00:00 13.8 14 Sur 28 Sur 0 -- -- 42
2020-03-29 15:00:00 12.7 15 Sur 26 Sudoeste 0 -- -- 45
2020-03-29 14:00:00 11.6 15 Sur 24 Sur 0 -- -- 49
2020-03-29 13:00:00 11.5 12 Sur 22 Sudoeste 0 -- -- 48
2020-03-29 12:00:00 11.7 5 Norte 9 Norte 0 -- -- 46
2020-03-29 11:00:00 9.7 0 Calma 3 Norte 0 -- -- 62
2020-03-29 10:00:00 5.3 0 Calma 2 Sudeste 0 -- -- 73
2020-03-29 09:00:00 -3.9 0 Calma 3 Sudoeste 0 -- -- 98
2020-03-29 08:00:00 -4.3 3 Sur 4 Sudoeste 0 -- -- 99
2020-03-29 07:00:00 -4.5 0 Calma 3 Sur 0 -- -- 99
2020-03-29 06:00:00 -4.1 2 Sur 3 Sur 0 -- -- 99
2020-03-29 05:00:00 -4.1 0 Calma 4 Sudoeste 0 -- -- 99
2020-03-29 03:00:00 -3.6 2 Sur 5 Sudoeste 0 -- -- 97
2020-03-29 01:00:00 -3.4 0 Calma 4 Sur 0 -- -- 96
2020-03-29 00:00:00 -2.5 2 Sur 5 Sur 0 -- -- 94
2020-03-28 23:00:00 -2.2 2 Sur 5 Sur 0 -- -- 90
2020-03-28 22:00:00 -1 4 Sur 6 Sur 0 -- -- 87
2020-03-28 21:00:00 0.8 0 Calma 9 Sur 0 -- -- 80
2020-03-28 20:00:00 4.7 6 Sudoeste 12 Sur 0 -- -- 68
2020-03-28 19:00:00 7.4 5 Sur 21 Sur 0 -- -- 57
2020-03-28 18:00:00 10.5 12 Sudoeste 22 Sudoeste 0 -- -- 45
2020-03-28 17:00:00 10.5 10 Sudoeste 28 Sur 0 -- -- 41
2020-03-28 16:00:00 11.2 14 Sudoeste 30 Sudoeste 0 -- -- 36
2020-03-28 15:00:00 11.2 13 Sur 30 Sur 0 -- -- 36
2020-03-28 14:00:00 10 13 Sur 28 Sudoeste 0 -- -- 38
2020-03-28 13:00:00 9.1 14 Sudoeste 26 Sudoeste 0 -- -- 45
2020-03-28 12:00:00 8.8 12 Sur 23 Sudoeste 0 -- -- 51
2020-03-28 11:00:00 8.5 4 Sudoeste 13 Sudoeste 0 -- -- 54
2020-03-28 10:00:00 5.6 3 Nordeste 4 Nordeste 0 -- -- 66
2020-03-28 09:00:00 2.1 0 Calma 5 Sudeste 0 -- -- 79
2020-03-28 08:00:00 -6.2 0 Calma 4 Sudoeste 0 -- -- 96
2020-03-28 07:00:00 -6.6 2 Sur 5 Sudoeste 0 -- -- 96
2020-03-28 06:00:00 -6.1 0 Calma 3 Este 0 -- -- 95
2020-03-28 05:00:00 -4.4 0 Calma 4 Norte 0 -- -- 95
2020-03-28 04:00:00 -3.7 0 Calma 3 Norte 0 -- -- 96
2020-03-28 03:00:00 -3.7 0 Calma 4 Sur 0 -- -- 96
2020-03-28 02:00:00 -5.9 0 Calma 4 Sur 0 -- -- 97
2020-03-28 01:00:00 -5.4 2 Sur 4 Sudoeste 0 -- -- 96
2020-03-28 00:00:00 -5 0 Calma 4 Sudoeste 0 -- -- 97
2020-03-27 23:00:00 -4.1 0 Calma 9 Sudoeste 0 -- -- 96
2020-03-27 22:00:00 -3.4 0 Calma 10 Sudoeste 0 -- -- 91
2020-03-27 21:00:00 -1.7 8 Sudoeste 10 Sudoeste 0 -- -- 86
2020-03-27 20:00:00 -0.3 5 Sudoeste 15 Nordeste 0 -- -- 84
2020-03-27 19:00:00 3.5 8 Nordeste 27 Sudeste 0 -- -- 65
2020-03-27 18:00:00 5.6 11 Norte 27 Este 0 -- -- 60
2020-03-27 17:00:00 5.2 8 Este 24 Nordeste 0 -- -- 58
2020-03-27 16:00:00 4 4 Sudoeste 14 Nordeste 0 -- -- 64
2020-03-27 15:00:00 4.1 3 Este 18 Sudoeste 0 -- -- 63
2020-03-27 14:00:00 4.6 9 Este 19 Norte 0 -- -- 65
2020-03-27 13:00:00 3.6 8 Sudeste 26 Este 0 -- -- 66
2020-03-27 12:00:00 4.7 5 Norte 20 Nordeste 0 -- -- 65
2020-03-27 11:00:00 4.1 8 Norte 21 Nordeste 0 -- -- 63
2020-03-27 10:00:00 3.6 11 Nordeste 19 Nordeste 0 -- -- 67
2020-03-27 09:00:00 -0.1 8 Norte 11 Norte 0 -- -- 83
2020-03-27 08:00:00 -3.3 0 Calma 4 Norte 0 -- -- 95
2020-03-27 07:00:00 -4.7 0 Calma 5 Norte 0 -- -- 97
2020-03-27 06:00:00 -4.9 0 Calma 6 Nordeste 0 -- -- 93
2020-03-27 05:00:00 -4.6 0 Calma 8 Norte 0 -- -- 95
2020-03-27 04:00:00 -4.4 0 Calma 5 Sur 0 -- -- 92
2020-03-27 03:00:00 -3.5 2 Sur 5 Este 0 -- -- 90
2020-03-27 02:00:00 -1.5 4 Sudeste 14 Norte 0 -- -- 80
2020-03-27 01:00:00 0.4 5 Sudoeste 14 Sur 0 -- -- 70
2020-03-27 00:00:00 -1.9 3 Sur 11 Sudoeste 0 -- -- 84
2020-03-26 23:00:00 -1.7 3 Sur 6 Sur 0 -- -- 81
2020-03-26 22:00:00 -0.1 3 Sudeste 8 Sudeste 0 -- -- 74
2020-03-26 21:00:00 0.6 2 Sur 13 Norte 0 -- -- 72
2020-03-26 20:00:00 4 9 Norte 22 Norte 0 -- -- 58
2020-03-26 19:00:00 7.1 12 Norte 27 Norte 0 -- -- 45
2020-03-26 18:00:00 10.4 17 Norte 31 Norte 0 -- -- 31
2020-03-26 17:00:00 11.5 18 Norte 31 Norte 0 -- -- 33
2020-03-26 16:00:00 12.2 20 Norte 33 Norte 0 -- -- 31
2020-03-26 15:00:00 12.1 21 Norte 41 Norte 0 -- -- 30
2020-03-26 14:00:00 12.1 16 Norte 33 Norte 0 -- -- 27
2020-03-26 13:00:00 11.9 17 Norte 34 Noroeste 0 -- -- 30
2020-03-26 12:00:00 10.9 19 Norte 33 Norte 0 -- -- 32
2020-03-26 11:00:00 11 18 Norte 38 Norte 0 -- -- 24
2020-03-26 10:00:00 9.5 23 Norte 41 Norte 0 -- -- 27
2020-03-26 09:00:00 7.1 25 Norte 45 Noroeste 0 -- -- 29
2020-03-26 08:00:00 3.8 17 Norte 32 Norte 0 -- -- 45
2020-03-26 07:00:00 -0.6 11 Norte 17 Sudeste 0 -- -- 80
2020-03-26 06:00:00 1.4 7 Sur 18 Sudeste 0 -- -- 84
2020-03-26 05:00:00 1.5 9 Sudeste 16 Sudeste 0 -- -- 90
2020-03-26 04:00:00 1.8 6 Sudeste 23 Nordeste 0 -- -- 90
2020-03-26 03:00:00 4.7 16 Nordeste 29 Norte 0 -- -- 80
2020-03-26 02:00:00 5.7 11 Norte 27 Norte 0 -- -- 80
2020-03-26 01:00:00 6.1 10 Norte 18 Norte 0 -- -- 83
2020-03-26 00:00:00 5.6 5 Norte 13 Nordeste 0 -- -- 87
2020-03-25 23:00:00 3.8 4 Este 12 Nordeste 0 -- -- 90
2020-03-25 22:00:00 4.6 6 Nordeste 18 Nordeste 0 -- -- 86
2020-03-25 21:00:00 6.3 10 Nordeste 18 Norte 0 -- -- 78
2020-03-25 20:00:00 6.8 6 Nordeste 18 Norte 0 -- -- 77
2020-03-25 19:00:00 8.4 9 Norte 29 Norte 0 -- -- 68
2020-03-25 18:00:00 10.8 18 Norte 34 Norte 0 -- -- 55
2020-03-25 17:00:00 11.6 6 Norte 45 Norte 0 -- -- 53
2020-03-25 16:00:00 10.8 16 Norte 37 Norte 0 -- -- 53
2020-03-25 15:00:00 11.9 21 Norte 41 Norte 0 -- -- 56
2020-03-25 14:00:00 9.1 12 Sur 30 Norte 0 -- -- 70
2020-03-25 13:00:00 10.3 18 Nordeste 26 Nordeste 0 -- -- 62
2020-03-25 12:00:00 12.2 9 Norte 30 Norte 0 -- -- 60
2020-03-25 11:00:00 10 19 Norte 30 Norte 0 -- -- 64
2020-03-25 10:00:00 8.6 15 Norte 33 Norte 0 -- -- 75
2020-03-25 09:00:00 6.3 0 Calma 4 Sudeste 0 -- -- 88
2020-03-25 08:00:00 1.9 0 Calma 4 Sudeste 0 -- -- 98
2020-03-25 07:00:00 2.6 0 Calma 6 Norte 0 -- -- 99
2020-03-25 06:00:00 3.5 0 Calma 4 Nordeste 0 -- -- 100
2020-03-25 05:00:00 3.3 0 Calma 5 Este 0 -- -- 100
2020-03-25 04:00:00 3.5 0 Calma 5 Sudoeste 0 -- -- 99
2020-03-25 03:00:00 3.6 3 Sur 5 Sudoeste 0 -- -- 99
2020-03-25 02:00:00 3.5 0 Calma 8 Sudoeste 0 -- -- 99
2020-03-25 01:00:00 1.9 3 Sur 5 Sudeste 0 -- -- 99
2020-03-25 00:00:00 4 0 Calma 5 Sudoeste 0 -- -- 98
2020-03-24 23:00:00 4.1 0 Calma 5 Sur 0 -- -- 98
2020-03-24 22:00:00 4.5 2 Sudeste 5 Sudeste 0 -- -- 97
2020-03-24 21:00:00 4.9 3 Sudeste 5 Sudeste 0 -- -- 96
2020-03-24 20:00:00 6 0 Calma 12 Norte 0 -- -- 91
2020-03-24 19:00:00 7 0 Calma 9 Nordeste 0 -- -- 87
2020-03-24 18:00:00 7.5 4 Nordeste 9 Nordeste 0 -- -- 84
2020-03-24 17:00:00 7.7 4 Este 8 Sur 0 -- -- 81
2020-03-24 16:00:00 8.4 3 Norte 16 Nordeste 0 -- -- 75
2020-03-24 15:00:00 8.6 10 Nordeste 19 Nordeste 0 -- -- 76
2020-03-24 14:00:00 8.1 6 Nordeste 26 Nordeste 0 -- -- 79
2020-03-24 13:00:00 8.2 5 Este 20 Nordeste 0 -- -- 81
2020-03-24 12:00:00 5.7 9 Norte 18 Norte 0 -- -- 92
2020-03-24 11:00:00 4.9 12 Norte 18 Norte 0 -- -- 95
2020-03-24 10:00:00 4.5 12 Norte 26 Norte 0.2 -- -- 95
2020-03-24 09:00:00 4.2 10 Norte 19 Norte 0.8 -- -- 96
2020-03-24 08:00:00 4.1 6 Norte 20 Este 1.2 -- -- 93
2020-03-24 07:00:00 4.6 9 Norte 16 Noroeste 0 -- -- 95
2020-03-24 06:00:00 4.8 6 Nordeste 15 Este 0 -- -- 90
2020-03-24 05:00:00 4.4 3 Nordeste 16 Norte 0 -- -- 95
2020-03-24 04:00:00 4.9 9 Norte 21 Norte 0.2 -- -- 92
2020-03-24 03:00:00 5.3 9 Sur 18 Sur 0 -- -- 88
2020-03-24 02:00:00 5.1 5 Sur 22 Este 0.6 -- -- 91
2020-03-24 01:00:00 5.8 8 Sur 22 Sudeste 0 -- -- 85
2020-03-24 00:00:00 5.7 10 Sur 19 Sudeste 0 -- -- 85
2020-03-23 23:00:00 4.2 2 Norte 10 Este 0 -- -- 98
2020-03-23 22:00:00 4.9 8 Este 13 Nordeste 0 -- -- 94
2020-03-23 21:00:00 3.5 2 Noroeste 11 Norte 0 -- -- 97
2020-03-23 20:00:00 3.3 5 Este 26 Nordeste 0.2 -- -- 97
2020-03-23 19:00:00 6.7 8 Norte 22 Nordeste 0 -- -- 84
2020-03-23 18:00:00 6.5 10 Nordeste 21 Nordeste 0 -- -- 81
2020-03-23 17:00:00 7.3 11 Nordeste 24 Nordeste 0 -- -- 77
2020-03-23 16:00:00 6.6 5 Norte 24 Sur 0.4 -- -- 88
2020-03-23 15:00:00 6.1 15 Sudeste 35 Sur 1 -- -- 79
2020-03-23 14:00:00 5.2 4 Nordeste 25 Nordeste 2.6 -- -- 93
2020-03-23 13:00:00 5.6 10 Nordeste 26 Nordeste 0.2 -- -- 90
2020-03-23 12:00:00 5.3 4 Nordeste 16 Nordeste 0.2 -- -- 91
2020-03-23 11:00:00 4.9 9 Nordeste 23 Norte 0 -- -- 92
2020-03-23 10:00:00 4.6 10 Norte 17 Norte 0.2 -- -- 96
2020-03-23 09:00:00 4 9 Norte 18 Nordeste 0.2 -- -- 97
2020-03-23 08:00:00 3.8 5 Norte 18 Norte 0.2 -- -- 98
2020-03-23 07:00:00 3.7 6 Norte 16 Nordeste 0 -- -- 98
2020-03-23 06:00:00 3.7 8 Nordeste 12 Nordeste 0.2 -- -- 98
2020-03-23 05:00:00 3.9 7 Norte 14 Norte 0.4 -- -- 97
2020-03-23 04:00:00 4.1 8 Norte 16 Norte 0 -- -- 97
2020-03-23 03:00:00 4.1 7 Norte 15 Norte 0 -- -- 96
2020-03-23 02:00:00 4.3 10 Norte 19 Norte 0 -- -- 97
2020-03-23 01:00:00 4.2 8 Norte 16 Norte 0.2 -- -- 99
2020-03-23 00:00:00 3.9 3 Sudoeste 5 Nordeste 0 -- -- 98
2020-03-22 23:00:00 4.2 4 Norte 9 Norte 0 -- -- 97
2020-03-22 22:00:00 4.6 5 Norte 15 Norte 0.6 -- -- 95
2020-03-22 21:00:00 4.6 0 Calma 4 Sur 0.6 -- -- 97
2020-03-22 20:00:00 4.6 2 Sudeste 6 Noroeste 0 -- -- 95
2020-03-22 19:00:00 5 4 Noroeste 16 Norte 0 -- -- 93
2020-03-22 18:00:00 5.3 8 Norte 14 Nordeste 0.2 -- -- 90
2020-03-22 17:00:00 6 6 Nordeste 15 Nordeste 0.4 -- -- 84
2020-03-22 16:00:00 5.8 11 Nordeste 25 Sur 0.2 -- -- 85
2020-03-22 15:00:00 8.9 14 Sur 23 Sur 0 -- -- 71
2020-03-22 14:00:00 9.6 8 Nordeste 21 Este 0 -- -- 60
2020-03-22 13:00:00 8.6 5 Nordeste 21 Sudeste 0 -- -- 63
2020-03-22 12:00:00 8.5 8 Este 21 Norte 0 -- -- 64
2020-03-22 11:00:00 7 12 Nordeste 20 Norte 0 -- -- 74
2020-03-22 10:00:00 4.7 8 Norte 14 Norte 0 -- -- 92
2020-03-22 09:00:00 2.6 7 Norte 10 Norte 0 -- -- 99
2020-03-22 08:00:00 1.5 3 Este 6 Norte 0 -- -- 100
2020-03-22 07:00:00 1 4 Norte 6 Norte 0.2 -- -- 100
2020-03-22 06:00:00 1 2 Norte 4 Sudeste 0 -- -- 100
2020-03-22 05:00:00 0.6 0 Calma 5 Norte 0 -- -- 100
2020-03-22 04:00:00 0.7 2 Norte 5 Norte 0 -- -- 100
2020-03-22 03:00:00 0.5 3 Sur 6 Sur 0 -- -- 100
2020-03-22 02:00:00 0 2 Sudeste 4 Sudeste 0 -- -- 100
2020-03-22 01:00:00 -0.5 0 Calma 4 Sur 0 -- -- 100
2020-03-22 00:00:00 -0.9 4 Sur 8 Sur 0 -- -- 100
2020-03-21 23:00:00 -1.1 3 Sudoeste 8 Sur 0 -- -- 99
2020-03-21 22:00:00 -0.7 5 Sudoeste 8 Sudoeste 0 -- -- 99
2020-03-21 21:00:00 -0.2 4 Sudoeste 10 Sudoeste 0 -- -- 98
2020-03-21 20:00:00 1.7 7 Sudoeste 9 Sur 0 -- -- 96
2020-03-21 19:00:00 3.9 4 Sur 16 Sur 0 -- -- 89
2020-03-21 18:00:00 4.3 10 Sur 17 Sur 0 -- -- 90
2020-03-21 17:00:00 3.7 10 Sur 20 Sur 0.2 -- -- 95
2020-03-21 16:00:00 4.2 8 Sur 26 Sudoeste 0.2 -- -- 91
2020-03-21 15:00:00 6.3 14 Sur 28 Sur 0 -- -- 85
2020-03-21 14:00:00 4 14 Sur 26 Sudoeste 1.2 -- -- 93
2020-03-21 13:00:00 2.5 12 Sur 28 Sudoeste 0.8 -- -- 94
2020-03-21 12:00:00 3.6 13 Sudoeste 24 Sudoeste 0.2 -- -- 95
2020-03-21 11:00:00 3.2 8 Sudeste 22 Sur 1.4 -- -- 96
2020-03-21 10:00:00 3.4 8 Sudoeste 17 Sudoeste 1.6 -- -- 96
2020-03-21 09:00:00 3.8 7 Sur 24 Sur 3 -- -- 98
2020-03-21 08:00:00 3.9 8 Norte 15 Norte 0.8 -- -- 98
2020-03-21 07:00:00 4.6 5 Sur 17 Sur 2.6 -- -- 96
2020-03-21 06:00:00 4.8 3 Noroeste 18 Sudoeste 0.6 -- -- 98
2020-03-21 05:00:00 4.8 5 Sudeste 16 Sudeste 0.6 -- -- 98
2020-03-21 04:00:00 4.7 4 Sur 22 Sudoeste 0.6 -- -- 98
2020-03-21 03:00:00 4.8 6 Sur 25 Sudeste 2 -- -- 97
2020-03-21 02:00:00 5.4 15 Sur 42 Sur 0 -- -- 90
2020-03-21 01:00:00 5.7 16 Sudeste 35 Sudeste 0 -- -- 89
2020-03-21 00:00:00 6.1 8 Este 32 Sudeste 0 -- -- 88
2020-03-20 23:00:00 6 11 Sudeste 33 Sur 0 -- -- 89
2020-03-20 22:00:00 6.5 13 Sudeste 32 Este 0 -- -- 87
2020-03-20 21:00:00 6.9 9 Sur 28 Este 0 -- -- 86
2020-03-20 20:00:00 7 13 Este 28 Sudeste 0 -- -- 86
2020-03-20 19:00:00 5.9 6 Norte 20 Nordeste 0 -- -- 95
2020-03-20 18:00:00 5.8 9 Norte 15 Norte 0.2 -- -- 95
2020-03-20 17:00:00 6.8 4 Nordeste 12 Sudeste 0 -- -- 88
2020-03-20 16:00:00 6.4 0 Calma 10 Sur 0 -- -- 91
2020-03-20 15:00:00 6.2 5 Sur 19 Sudoeste 0 -- -- 91
2020-03-20 14:00:00 6.6 3 Sudoeste 13 Sur 0 -- -- 90
2020-03-20 13:00:00 5.7 9 Sur 22 Sudoeste 0 -- -- 94
2020-03-20 12:00:00 6.7 5 Nordeste 25 Este 0 -- -- 90
2020-03-20 11:00:00 5.7 13 Nordeste 24 Nordeste 0 -- -- 93
2020-03-20 10:00:00 5 10 Nordeste 23 Nordeste 0 -- -- 97
2020-03-20 09:00:00 5.5 8 Nordeste 16 Nordeste 0 -- -- 97
2020-03-20 08:00:00 5.3 10 Norte 14 Nordeste 0 -- -- 96
2020-03-20 07:00:00 5.3 2 Sur 12 Nordeste 0 -- -- 97
2020-03-20 06:00:00 5.3 7 Nordeste 17 Nordeste 0 -- -- 98
2020-03-20 05:00:00 5.3 7 Norte 15 Nordeste 0 -- -- 98
2020-03-20 04:00:00 5.4 5 Nordeste 13 Nordeste 0 -- -- 97
2020-03-20 03:00:00 5.5 4 Nordeste 11 Este 0 -- -- 97
2020-03-20 02:00:00 5.1 3 Norte 6 Norte 0 -- -- 98
2020-03-20 01:00:00 3.2 3 Sur 6 Sudeste 0 -- -- 99
2020-03-20 00:00:00 2.5 0 Calma 6 Sudoeste 0 -- -- 96
2020-03-19 23:00:00 3.3 3 Sur 6 Sudoeste 0 -- -- 96
2020-03-19 22:00:00 3.9 0 Calma 4 Sudoeste 0 -- -- 93
2020-03-19 21:00:00 5 0 Calma 4 Sudoeste 0 -- -- 91
2020-03-19 20:00:00 6.4 0 Calma 6 Sudeste 0 -- -- 87
2020-03-19 19:00:00 8.3 2 Sudeste 11 Nordeste 0 -- -- 77
2020-03-19 18:00:00 9.2 8 Nordeste 17 Este 0 -- -- 69
2020-03-19 17:00:00 9.8 9 Este 22 Nordeste 0 -- -- 67
2020-03-19 16:00:00 11.4 5 Nordeste 16 Nordeste 0 -- -- 61
2020-03-19 15:00:00 10.6 10 Nordeste 17 Norte 0 -- -- 65
2020-03-19 14:00:00 10.1 6 Nordeste 15 Norte 0 -- -- 60
2020-03-19 13:00:00 8.7 9 Norte 14 Nordeste 0 -- -- 67
2020-03-19 12:00:00 7.9 10 Norte 14 Norte 0 -- -- 70
2020-03-19 11:00:00 6.6 8 Norte 18 Norte 0 -- -- 66
2020-03-19 10:00:00 6.6 6 Norte 12 Norte 0 -- -- 78
2020-03-19 09:00:00 4 6 Nordeste 13 Norte 0 -- -- 100
2020-03-19 08:00:00 2.6 0 Calma 5 Sudeste 0 -- -- 100
2020-03-19 07:00:00 2.3 0 Calma 5 Sudoeste 0 -- -- 100
2020-03-19 06:00:00 1.8 0 Calma 3 Sudoeste 0 -- -- 100
2020-03-19 05:00:00 1.3 2 Sudoeste 5 Sudoeste 0 -- -- 100
2020-03-19 04:00:00 1.3 0 Calma 4 Sudoeste 0 -- -- 99
2020-03-19 03:00:00 1.5 2 Norte 4 Sudeste 0 -- -- 99
2020-03-19 02:00:00 1.9 3 Sudoeste 5 Sudoeste 0 -- -- 100
2020-03-19 01:00:00 2.1 0 Calma 10 Sur 0 -- -- 98
2020-03-19 00:00:00 2.6 2 Sur 6 Sudoeste 0 -- -- 97
2020-03-18 23:00:00 3.7 2 Sur 6 Sudoeste 0 -- -- 96
2020-03-18 22:00:00 4.2 0 Calma 6 Sudoeste 0 -- -- 94
2020-03-18 21:00:00 5 4 Sur 9 Sudoeste 0 -- -- 94
2020-03-18 20:00:00 6.6 3 Sur 6 Sudeste 0 -- -- 89
2020-03-18 19:00:00 9.7 2 Norte 13 Norte 0 -- -- 74
2020-03-18 18:00:00 11.3 3 Oeste 17 Nordeste 0 -- -- 68
2020-03-18 17:00:00 11.6 7 Norte 23 Norte 0 -- -- 65
2020-03-18 16:00:00 12.5 7 Nordeste 19 Sur 0 -- -- 59
2020-03-18 15:00:00 13.4 9 Sur 23 Sudoeste 0 -- -- 54
2020-03-18 14:00:00 14.5 12 Sur 24 Sur 0 -- -- 51
2020-03-18 13:00:00 11.3 8 Norte 17 Norte 0 -- -- 69
2020-03-18 12:00:00 9.6 13 Norte 24 Norte 0 -- -- 77
2020-03-18 11:00:00 8.6 5 Norte 15 Norte 0 -- -- 82
2020-03-18 10:00:00 6.5 0 Calma 8 Sudeste 0 -- -- 98
2020-03-18 09:00:00 3.3 3 Sur 7 Sudoeste 0 -- -- 100
2020-03-18 08:00:00 2.1 4 Sur 10 Sudeste 0 -- -- 100
2020-03-18 07:00:00 2 3 Sudeste 6 Sudeste 0 -- -- 100
2020-03-18 06:00:00 2.5 3 Sur 11 Sudeste 0 -- -- 99
2020-03-18 05:00:00 2.5 6 Sudeste 10 Sudeste 0 -- -- 99
2020-03-18 04:00:00 2.9 4 Sudeste 9 Sudoeste 0 -- -- 98
2020-03-18 03:00:00 4.9 5 Sudeste 9 Sudeste 0 -- -- 98
2020-03-18 02:00:00 5.1 4 Sudoeste 9 Sudeste 0 -- -- 99
2020-03-18 01:00:00 4.7 4 Sur 9 Sudeste 0 -- -- 98
2020-03-18 00:00:00 6 4 Sur 25 Sudeste 0 -- -- 93
2020-03-17 23:00:00 6.1 7 Sur 19 Sur 0 -- -- 90
2020-03-17 22:00:00 6.9 10 Sur 19 Sur 0.4 -- -- 87
2020-03-17 21:00:00 8.3 5 Sudeste 22 Sur 0 -- -- 83
2020-03-17 20:00:00 8.6 9 Sudeste 30 Sur 0 -- -- 80
2020-03-17 19:00:00 6.6 7 Sudeste 11 Sudeste 0 -- -- 90
2020-03-17 18:00:00 7.9 4 Sudeste 21 Sur 0 -- -- 82
2020-03-17 17:00:00 9.1 10 Este 32 Sudeste 0 -- -- 67
2020-03-17 16:00:00 10.3 7 Nordeste 23 Nordeste 0 -- -- 65
2020-03-17 15:00:00 7 8 Norte 24 Nordeste 0 -- -- 79
2020-03-17 14:00:00 6 8 Noroeste 17 Noroeste 0 -- -- 84
2020-03-17 13:00:00 4.9 4 Oeste 10 Oeste 0 -- -- 88
2020-03-17 12:00:00 3 7 Sur 11 Sudeste 0 -- -- 90
2020-03-17 11:00:00 3.2 7 Sur 13 Noroeste 0 -- -- 87
2020-03-17 10:00:00 4.3 3 Noroeste 7 Noroeste 0.2 -- -- 83
2020-03-17 09:00:00 0.7 0 Calma 9 Norte 0.4 -- -- 97
2020-03-17 08:00:00 -1 0 Calma 6 Sudeste 0 -- -- 98
2020-03-17 07:00:00 -2.8 0 Calma 0 Calma 0 -- -- 97
2020-03-17 06:00:00 -4.6 0 Calma 4 Nordeste 0 -- -- 98
2020-03-17 05:00:00 -1.5 3 Nordeste 13 Este 0 -- -- 94
2020-03-17 04:00:00 -0.6 7 Nordeste 14 Este 0 -- -- 98
2020-03-17 03:00:00 -2.6 0 Calma 4 Sudeste 0 -- -- 100
2020-03-17 02:00:00 -3.6 0 Calma 5 Este 0 -- -- 98
2020-03-17 01:00:00 -3.9 0 Calma 6 Norte 0 -- -- 99
2020-03-17 00:00:00 -1.1 0 Calma 13 Nordeste 0 -- -- 96
2020-03-16 23:00:00 -0.8 5 Norte 9 Noroeste 0.2 -- -- 98
2020-03-16 22:00:00 -0.4 5 Norte 9 Norte 0.8 -- -- 98
2020-03-16 21:00:00 -0.2 4 Noroeste 11 Nordeste 0.8 -- -- 98
2020-03-16 20:00:00 -0.1 10 Norte 16 Norte 0.2 -- -- 98
2020-03-16 19:00:00 -0.2 9 Norte 16 Norte 0.6 -- -- 98
2020-03-16 18:00:00 -0.1 5 Norte 10 Norte 1 -- -- 97
2020-03-16 17:00:00 0.1 0 Calma 10 Noroeste 2.4 -- -- 98
2020-03-16 16:00:00 -0.2 8 Norte 15 Noroeste 0.2 -- -- 98
2020-03-16 15:00:00 -0.5 10 Norte 20 Norte 0.4 -- -- 98
2020-03-16 14:00:00 -0.8 12 Norte 34 Norte 0 -- -- 97
2020-03-16 13:00:00 0.2 26 Norte 38 Norte 0.2 -- -- 87
2020-03-16 12:00:00 -0.6 9 Norte 43 Norte 0 -- -- 94
2020-03-16 11:00:00 -0.6 26 Norte 57 Norte 0 -- -- 90
2020-03-16 10:00:00 -0.7 16 Norte 35 Nordeste 0 -- -- 91
2020-03-16 09:00:00 -0.3 14 Nordeste 33 Nordeste 0 -- -- 78
2020-03-16 08:00:00 -0.8 16 Norte 31 Norte 0 -- -- 81
2020-03-16 07:00:00 -0.8 15 Norte 28 Norte 0 -- -- 83
2020-03-16 06:00:00 -1 6 Norte 17 Noroeste 0 -- -- 85
2020-03-16 05:00:00 -0.4 11 Norte 24 Norte 0 -- -- 80
2020-03-16 04:00:00 -0.7 14 Norte 28 Norte 0 -- -- 81
2020-03-16 03:00:00 -0.3 10 Norte 23 Norte 0 -- -- 81
2020-03-16 02:00:00 0.9 6 Norte 17 Norte 0 -- -- 80
2020-03-16 01:00:00 1.5 4 Oeste 19 Norte 0 -- -- 81
2020-03-16 00:00:00 2.4 8 Noroeste 27 Norte 0 -- -- 84
2020-03-15 23:00:00 3.2 21 Norte 39 Norte 0 -- -- 92
2020-03-15 22:00:00 6 14 Sur 34 Sur 0 -- -- 91
2020-03-15 21:00:00 7.4 15 Sur 41 Sudoeste 0 -- -- 92
2020-03-15 20:00:00 8 19 Sur 36 Sur 0 -- -- 90
2020-03-15 19:00:00 8.7 13 Sur 33 Sudoeste 0 -- -- 88
2020-03-15 18:00:00 9.1 11 Sudoeste 27 Sur 0.8 -- -- 79
2020-03-15 17:00:00 10.7 13 Sur 35 Sudoeste 0.2 -- -- 85
2020-03-15 16:00:00 13.4 15 Sudoeste 34 Sudoeste 0 -- -- 67
2020-03-15 15:00:00 12.6 12 Sudoeste 28 Sudoeste 0 -- -- 77
2020-03-15 14:00:00 11.6 12 Sur 30 Sur 0 -- -- 78
2020-03-15 13:00:00 13 20 Sur 35 Sur 0 -- -- 65
2020-03-15 12:00:00 12.8 16 Sur 37 Sudoeste 0 -- -- 66
2020-03-15 11:00:00 12.9 17 Sur 31 Sudoeste 0 -- -- 63
2020-03-15 10:00:00 10.4 13 Sur 24 Sur 0 -- -- 74
2020-03-15 09:00:00 0.6 0 Calma 5 Sudeste 0 -- -- 100
2020-03-15 08:00:00 -2.5 0 Calma 4 Sudoeste 0 -- -- 100
2020-03-15 07:00:00 -2.8 0 Calma 6 Oeste 0 -- -- 99
2020-03-15 06:00:00 -2.5 0 Calma 4 Sudoeste 0 -- -- 99
2020-03-15 05:00:00 -2.6 0 Calma 4 Sur 0 -- -- 99
2020-03-15 04:00:00 -2.2 0 Calma 5 Sudoeste 0 -- -- 98
2020-03-15 03:00:00 -2.1 0 Calma 5 Sudoeste 0 -- -- 97
2020-03-15 02:00:00 -1.4 2 Sur 4 Sudoeste 0 -- -- 93
2020-03-15 01:00:00 -0.1 2 Sur 4 Sur 0 -- -- 93
2020-03-15 00:00:00 0.3 0 Calma 5 Sur 0 -- -- 89
2020-03-14 23:00:00 1.6 3 Sur 5 Sur 0 -- -- 88
2020-03-14 22:00:00 3 2 Sur 7 Sudoeste 0 -- -- 84
2020-03-14 21:00:00 5.3 3 Sur 8 Sudoeste 0 -- -- 78
2020-03-14 20:00:00 8.9 4 Nordeste 19 Sur 0 -- -- 73
2020-03-14 19:00:00 12.3 8 Sur 20 Sur 0 -- -- 63
2020-03-14 18:00:00 16.1 13 Sur 26 Sudoeste 0 -- -- 50
2020-03-14 17:00:00 16.9 15 Sur 27 Sudoeste 0 -- -- 47
2020-03-14 16:00:00 17.4 14 Sur 27 Sudoeste 0 -- -- 45
2020-03-14 15:00:00 16.7 15 Sur 27 Sudoeste 0 -- -- 48
2020-03-14 14:00:00 16.3 13 Sur 26 Sur 0 -- -- 50
2020-03-14 13:00:00 15.3 14 Sur 25 Sudoeste 0 -- -- 50
2020-03-14 12:00:00 16 5 Sur 18 Sudoeste 0 -- -- 44
2020-03-14 11:00:00 14 5 Nordeste 8 Norte 0 -- -- 42
2020-03-14 10:00:00 10.2 0 Calma 5 Este 0 -- -- 71
2020-03-14 09:00:00 2 3 Sudeste 4 Nordeste 0 -- -- 100
2020-03-14 08:00:00 -0.7 0 Calma 6 Sudeste 0 -- -- 100
2020-03-14 07:00:00 -0.5 2 Sudoeste 6 Sur 0 -- -- 99
2020-03-14 06:00:00 0.8 0 Calma 8 Sudeste 0 -- -- 99
2020-03-14 05:00:00 1.8 4 Sur 8 Sudeste 0 -- -- 99
2020-03-14 04:00:00 1.8 2 Sur 5 Sudoeste 0 -- -- 100
2020-03-14 03:00:00 3.2 2 Este 9 Sudeste 0 -- -- 96
2020-03-14 02:00:00 4.3 2 Sudoeste 6 Sudeste 0 -- -- 100
2020-03-14 01:00:00 2.6 3 Nordeste 7 Nordeste 0 -- -- 99
2020-03-14 00:00:00 3.9 2 Nordeste 6 Nordeste 0 -- -- 95
2020-03-13 23:00:00 4.4 0 Calma 5 Este 0 -- -- 93
2020-03-13 22:00:00 8.3 4 Nordeste 13 Norte 0 -- -- 87
2020-03-13 21:00:00 9.4 4 Norte 12 Norte 0 -- -- 84
2020-03-13 20:00:00 10.5 9 Norte 30 Norte 0 -- -- 79
2020-03-13 19:00:00 11.5 19 Norte 28 Norte 0 -- -- 75
2020-03-13 18:00:00 13.5 15 Norte 24 Norte 0 -- -- 69
2020-03-13 17:00:00 14.4 8 Sur 21 Sudoeste 0 -- -- 69
2020-03-13 16:00:00 15 12 Sur 28 Sudoeste 0 -- -- 69
2020-03-13 15:00:00 16.5 16 Sur 31 Sudoeste 0 -- -- 62
2020-03-13 14:00:00 15.7 18 Sur 31 Sudoeste 0 -- -- 65
2020-03-13 13:00:00 15.4 17 Sur 28 Sur 0 -- -- 64
2020-03-13 12:00:00 15.4 15 Sur 26 Sudoeste 0 -- -- 64
2020-03-13 11:00:00 15.5 12 Sur 19 Sudoeste 0 -- -- 58
2020-03-13 10:00:00 12.3 0 Calma 4 Nordeste 0 -- -- 68
2020-03-13 09:00:00 2.6 0 Calma 5 Sur 0 -- -- 100
2020-03-13 08:00:00 -0.4 0 Calma 5 Sur 0 -- -- 100
2020-03-13 07:00:00 0.4 5 Sur 9 Sudoeste 0 -- -- 100
2020-03-13 06:00:00 1.2 3 Sur 4 Sur 0 -- -- 98
2020-03-13 05:00:00 1.9 0 Calma 9 Sudoeste 0 -- -- 95
2020-03-13 04:00:00 3 0 Calma 10 Sur 0 -- -- 93
2020-03-13 03:00:00 4.3 0 Calma 6 Sur 0 -- -- 90
2020-03-13 02:00:00 5.5 0 Calma 5 Sudoeste 0 -- -- 85
2020-03-13 01:00:00 5.8 2 Sur 5 Sudeste 0 -- -- 85
2020-03-13 00:00:00 5.8 3 Sur 9 Sudoeste 0 -- -- 83
2020-03-12 23:00:00 6 4 Sur 7 Sur 0 -- -- 81
2020-03-12 22:00:00 7.7 0 Calma 8 Sudoeste 0 -- -- 75
2020-03-12 21:00:00 10.6 4 Sur 14 Oeste 0 -- -- 65
2020-03-12 20:00:00 14.6 6 Sur 19 Sur 0 -- -- 56
2020-03-12 19:00:00 15.6 11 Sur 22 Sur 0 -- -- 50
2020-03-12 18:00:00 17.2 12 Sur 32 Sur 0 -- -- 45
2020-03-12 17:00:00 18.4 14 Sur 29 Sur 0 -- -- 41
2020-03-12 16:00:00 20 14 Sur 28 Sur 0 -- -- 40
2020-03-12 15:00:00 19.7 15 Sur 30 Sudoeste 0 -- -- 42
2020-03-12 14:00:00 20 14 Sur 30 Sudoeste 0 -- -- 37
2020-03-12 13:00:00 19.1 16 Sur 30 Sur 0 -- -- 38
2020-03-12 12:00:00 18.4 13 Sur 25 Sudeste 0 -- -- 44
2020-03-12 11:00:00 17.6 9 Sudoeste 18 Sur 0 -- -- 49
2020-03-12 10:00:00 17.2 9 Sudoeste 20 Sudoeste 0 -- -- 49
2020-03-12 09:00:00 10.2 2 Nordeste 6 Sur 0 -- -- 78
2020-03-12 08:00:00 5.8 0 Calma 8 Sur 0 -- -- 89
2020-03-12 07:00:00 4.9 0 Calma 6 Sudoeste 0 -- -- 90
2020-03-12 06:00:00 4.2 0 Calma 6 Sudoeste 0 -- -- 89
2020-03-12 05:00:00 3.7 2 Sur 5 Sudoeste 0 -- -- 89
2020-03-12 04:00:00 2.3 3 Sudoeste 5 Sudoeste 0 -- -- 90
2020-03-12 03:00:00 2.2 2 Sur 5 Sur 0 -- -- 87
2020-03-12 02:00:00 2.9 3 Sur 5 Sudoeste 0 -- -- 86
2020-03-12 01:00:00 3.5 0 Calma 6 Sur 0 -- -- 83
2020-03-12 00:00:00 4.4 2 Sur 6 Sur 0 -- -- 80
2020-03-11 23:00:00 5.4 0 Calma 5 Sudoeste 0 -- -- 79
2020-03-11 22:00:00 7.4 3 Sur 5 Sudeste 0 -- -- 69
2020-03-11 21:00:00 9.2 3 Sur 6 Sudeste 0 -- -- 65
2020-03-11 20:00:00 12.3 5 Sur 13 Sur 0 -- -- 59
2020-03-11 19:00:00 16.2 9 Sur 21 Sudoeste 0 -- -- 49
2020-03-11 18:00:00 17 12 Sur 23 Sur 0 -- -- 54
2020-03-11 17:00:00 17.4 15 Sur 33 Sudoeste 0 -- -- 56
2020-03-11 16:00:00 19.7 18 Sur 33 Sur 0 -- -- 42
2020-03-11 15:00:00 21.5 17 Sur 38 Sudoeste 0 -- -- 42
2020-03-11 14:00:00 20.9 17 Sur 32 Sur 0 -- -- 43
2020-03-11 13:00:00 19.6 16 Sur 28 Sudoeste 0 -- -- 43
2020-03-11 12:00:00 19.2 17 Sur 24 Sudoeste 0 -- -- 42
2020-03-11 11:00:00 19.4 10 Sur 16 Sur 0 -- -- 42
2020-03-11 10:00:00 16.4 0 Calma 3 Sudeste 0 -- -- 59
2020-03-11 09:00:00 3.1 0 Calma 4 Sur 0 -- -- 99
2020-03-11 08:00:00 0.9 2 Sudoeste 7 Oeste 0 -- -- 99
2020-03-11 07:00:00 0.7 0 Calma 4 Sudoeste 0 -- -- 99
2020-03-11 06:00:00 0.9 0 Calma 4 Sur 0 -- -- 98
2020-03-11 05:00:00 1.1 0 Calma 4 Sudoeste 0 -- -- 98
2020-03-11 04:00:00 1.3 0 Calma 4 Sur 0 -- -- 97
2020-03-11 03:00:00 1.7 0 Calma 5 Sur 0 -- -- 98
2020-03-11 02:00:00 2.3 3 Sur 6 Sur 0 -- -- 97
2020-03-11 01:00:00 2.9 0 Calma 8 Sudoeste 0 -- -- 94
2020-03-11 00:00:00 4 2 Sur 6 Sudoeste 0 -- -- 88
2020-03-10 23:00:00 4.7 0 Calma 7 Sur 0 -- -- 86
2020-03-10 22:00:00 5.9 3 Sur 8 Sudoeste 0 -- -- 82
2020-03-10 21:00:00 7.8 3 Sur 10 Sudoeste 0 -- -- 76
2020-03-10 20:00:00 9 6 Sur 10 Sudoeste 0 -- -- 74
2020-03-10 19:00:00 13.6 8 Sur 13 Sudoeste 0 -- -- 61
2020-03-10 18:00:00 18.7 12 Sudoeste 27 Sudoeste 0 -- -- 45
2020-03-10 17:00:00 19.6 12 Sudoeste 27 Sudoeste 0 -- -- 45
2020-03-10 16:00:00 18.3 13 Sudoeste 26 Sudoeste 0 -- -- 48
2020-03-10 15:00:00 17.6 14 Sudoeste 26 Sudoeste 0 -- -- 48
2020-03-10 14:00:00 18.9 15 Sur 28 Sudoeste 0 -- -- 44
2020-03-10 13:00:00 19.8 9 Oeste 21 Norte 0 -- -- 41
2020-03-10 12:00:00 19.7 8 Norte 15 Noroeste 0 -- -- 37
2020-03-10 11:00:00 16.6 5 Norte 9 Norte 0 -- -- 54
2020-03-10 10:00:00 9 0 Calma 4 Sudoeste 0 -- -- 73
2020-03-10 09:00:00 3.8 0 Calma 4 Oeste 0 -- -- 96
2020-03-10 08:00:00 1.1 0 Calma 4 Sudoeste 0 -- -- 99
2020-03-10 07:00:00 1 0 Calma 4 Sur 0 -- -- 98
2020-03-10 06:00:00 1.2 0 Calma 5 Norte 0 -- -- 95
2020-03-10 05:00:00 2 3 Sur 7 Sudoeste 0 -- -- 93
2020-03-10 04:00:00 2.2 0 Calma 11 Sur 0 -- -- 91
2020-03-10 03:00:00 1.3 4 Sur 6 Sur 0 -- -- 89
2020-03-10 02:00:00 1 2 Sur 6 Sur 0 -- -- 87
2020-03-10 01:00:00 1.9 4 Sudeste 8 Norte 0 -- -- 78
2020-03-10 00:00:00 1.7 4 Norte 14 Norte 0 -- -- 75
2020-03-09 23:00:00 2.4 4 Norte 9 Sudeste 0 -- -- 71
2020-03-09 22:00:00 4.1 5 Este 13 Norte 0 -- -- 63
2020-03-09 21:00:00 4.4 8 Norte 17 Norte 0 -- -- 63
2020-03-09 20:00:00 6 9 Norte 23 Nordeste 0 -- -- 56
2020-03-09 19:00:00 9 17 Norte 25 Norte -- -- -- 46
2020-03-09 18:00:00 11.7 18 Norte 28 Norte 0 -- -- 35
2020-03-09 17:00:00 12.7 12 Nordeste 25 Nordeste 0 -- -- 31
2020-03-09 16:00:00 12.3 17 Nordeste 34 Norte 0 -- -- 29
2020-03-09 15:00:00 13.8 17 Nordeste 35 Nordeste 0 -- -- 25
2020-03-09 14:00:00 14 15 Nordeste 34 Norte 0 -- -- 29
2020-03-09 13:00:00 14.1 18 Norte 28 Oeste 0 -- -- 29
2020-03-09 12:00:00 13.2 13 Norte 26 Oeste 0 -- -- 24
2020-03-09 11:00:00 12.5 11 Noroeste 31 Noroeste 0 -- -- 23
2020-03-09 10:00:00 10.9 11 Noroeste 24 Norte 0 -- -- 26
2020-03-09 09:00:00 5.4 4 Sudeste 17 Oeste 0 -- -- 36
2020-03-09 08:00:00 5.9 6 Noroeste 18 Oeste 0 -- -- 31
2020-03-09 07:00:00 6.6 10 Nordeste 19 Sudeste 0 -- -- 31
2020-03-09 06:00:00 4.7 5 Nordeste 26 Nordeste 0 -- -- 44
2020-03-09 05:00:00 4.7 14 Este 32 Este 0 -- -- 47
2020-03-09 04:00:00 4.8 11 Norte 30 Norte 0 -- -- 61
2020-03-09 03:00:00 4.5 13 Norte 23 Noroeste 0 -- -- 74
2020-03-09 02:00:00 4.8 12 Norte 26 Norte 0 -- -- 74
2020-03-09 01:00:00 4.9 10 Norte 26 Norte 0 -- -- 76
2020-03-09 00:00:00 5.4 13 Norte 33 Oeste 0 -- -- 73
2020-03-08 23:00:00 5.8 14 Norte 30 Norte 0 -- -- 73
2020-03-08 22:00:00 5.5 8 Norte 20 Norte 0 -- -- 82
2020-03-08 21:00:00 7 8 Nordeste 17 Norte 0 -- -- 82
2020-03-08 20:00:00 6.8 8 Norte 21 Norte 0 -- -- 84
2020-03-08 19:00:00 8.2 9 Norte 23 Norte 0 -- -- 78
2020-03-08 18:00:00 10.1 4 Norte 22 Norte 0 -- -- 51
2020-03-08 17:00:00 10.1 5 Nordeste 28 Norte 0 -- -- 49
2020-03-08 16:00:00 10.7 5 Norte 31 Norte 0 -- -- 48
2020-03-08 15:00:00 11.4 23 Norte 34 Norte 0 -- -- 38
2020-03-08 14:00:00 13.1 13 Norte 35 Norte 0 -- -- 26
2020-03-08 13:00:00 13.2 16 Nordeste 27 Nordeste 0 -- -- 22
2020-03-08 12:00:00 13.8 6 Noroeste 22 Oeste 0 -- -- 17
2020-03-08 11:00:00 11.4 9 Oeste 20 Oeste 0 -- -- 16
2020-03-08 10:00:00 8.2 5 Norte 12 Noroeste 0 -- -- 29
2020-03-08 09:00:00 -3.9 2 Este 8 Sur 0 -- -- 74
2020-03-08 08:00:00 -7 0 Calma 8 Sur 0 -- -- 80
2020-03-08 07:00:00 -7.4 0 Calma 12 Sudoeste 0 -- -- 85
2020-03-08 06:00:00 -7.4 3 Sur 6 Sur 0 -- -- 85
2020-03-08 05:00:00 -6.5 0 Calma 10 Sudoeste 0 -- -- 89
2020-03-08 04:00:00 -6.2 0 Calma 8 Sudoeste 0 -- -- 92
2020-03-08 03:00:00 -6 0 Calma 9 Sudoeste 0 -- -- 92
2020-03-08 02:00:00 -5.3 2 Sur 8 Sur 0 -- -- 90
2020-03-08 01:00:00 -4 4 Sur 10 Sur 0 -- -- 84
2020-03-08 00:00:00 -3 6 Sur 9 Sur 0 -- -- 91
2020-03-07 23:00:00 -1.5 4 Sur 6 Sur 0 -- -- 92
2020-03-07 22:00:00 -1.3 0 Calma 5 Sur 0 -- -- 91
2020-03-07 21:00:00 0.7 4 Sur 11 Sudoeste 0 -- -- 85
2020-03-07 20:00:00 2.5 5 Sur 10 Sudoeste 0 -- -- 83
2020-03-07 19:00:00 6.7 5 Sur 18 Norte 0 -- -- 66
2020-03-07 18:00:00 10.8 4 Noroeste 15 Sudoeste 0 -- -- 48
2020-03-07 17:00:00 8.5 10 Sur 27 Sur 0 -- -- 63
2020-03-07 16:00:00 9.4 12 Sur 28 Sudoeste 0 -- -- 60
2020-03-07 15:00:00 9.3 17 Sur 27 Sudoeste 0 -- -- 61
2020-03-07 14:00:00 9.9 14 Sur 24 Sur 0 -- -- 59
2020-03-07 13:00:00 10.1 5 Oeste 21 Norte 0 -- -- 49
2020-03-07 12:00:00 8 14 Norte 30 Norte 0 -- -- 61
2020-03-07 11:00:00 6 17 Norte 28 Norte 0 -- -- 68
2020-03-07 10:00:00 4.4 10 Nordeste 18 Norte 0 -- -- 71
2020-03-07 09:00:00 2.9 3 Nordeste 10 Este 0 -- -- 77
2020-03-07 08:00:00 -0.1 2 Este 8 Sudoeste 0 -- -- 86
2020-03-07 07:00:00 -0.5 2 Sur 7 Sudeste 0 -- -- 85
2020-03-07 06:00:00 -0.5 0 Calma 15 Nordeste 0 -- -- 81
2020-03-07 05:00:00 0.8 11 Nordeste 29 Nordeste 0 -- -- 72
2020-03-07 04:00:00 0.9 17 Nordeste 38 Norte 0 -- -- 68
2020-03-07 03:00:00 0.7 27 Norte 42 Norte 0 -- -- 72
2020-03-07 02:00:00 0.8 19 Norte 41 Norte 0 -- -- 72
2020-03-07 01:00:00 1.1 20 Norte 44 Norte 0 -- -- 71
2020-03-07 00:00:00 1.3 13 Norte 46 Norte 0 -- -- 71
2020-03-06 23:00:00 1.8 25 Norte 57 Norte 0 -- -- 72
2020-03-06 22:00:00 2.1 33 Norte 58 Norte 0 -- -- 70
2020-03-06 21:00:00 2.5 30 Norte 57 Norte 0 -- -- 74
2020-03-06 20:00:00 2.8 23 Norte 54 Norte 0 -- -- 69
2020-03-06 19:00:00 3.4 33 Norte 49 Norte 0 -- -- 67
2020-03-06 18:00:00 4.7 19 Norte 48 Norte 0 -- -- 60
2020-03-06 17:00:00 6.1 25 Norte 50 Noroeste 0 -- -- 55
2020-03-06 16:00:00 6.3 31 Norte 52 Norte 0 -- -- 55
2020-03-06 15:00:00 5.2 23 Norte 57 Norte 0 -- -- 61
2020-03-06 14:00:00 -- -- -- -- -- -- -- -- --
2020-03-06 13:00:00 -- -- -- -- -- -- -- -- --
2020-03-06 12:00:00 -- -- -- -- -- -- -- -- --
2020-03-06 11:00:00 -- -- -- -- -- -- -- -- --
2020-03-06 10:00:00 -- -- -- -- -- -- -- -- --
2020-03-06 09:00:00 -- -- -- -- -- -- -- -- --
2020-03-06 08:00:00 -- -- -- -- -- -- -- -- --
2020-03-06 07:00:00 -- -- -- -- -- -- -- -- --
2020-03-06 06:00:00 -- -- -- -- -- -- -- -- --
2020-03-06 05:00:00 -- -- -- -- -- -- -- -- --
2020-03-06 04:00:00 -- -- -- -- -- -- -- -- --
2020-03-06 03:00:00 -- -- -- -- -- -- -- -- --
2020-03-06 02:00:00 -- -- -- -- -- -- -- -- --
2020-03-06 01:00:00 -- -- -- -- -- -- -- -- --
2020-03-06 00:00:00 -- -- -- -- -- -- -- -- --
2020-03-05 23:00:00 -- -- -- -- -- -- -- -- --
2020-03-05 22:00:00 3.9 18 Norte 46 Norte 0 -- -- 76
2020-03-05 21:00:00 4.6 15 Norte 33 Norte 0 -- -- 73
2020-03-05 20:00:00 5 9 Norte 33 Norte 0 -- -- 72
2020-03-05 19:00:00 6.3 14 Norte 35 Norte 0 -- -- 65
2020-03-05 18:00:00 8.2 15 Norte 42 Norte 0 -- -- 59
2020-03-05 17:00:00 8.9 13 Noroeste 45 Oeste 0 -- -- 55
2020-03-05 16:00:00 9.3 14 Oeste 43 Noroeste 0 -- -- 57
2020-03-05 15:00:00 9 14 Norte 48 Oeste 0 -- -- 61
2020-03-05 14:00:00 8.8 16 Noroeste 39 Norte 0 -- -- 60
2020-03-05 13:00:00 8.2 13 Norte 56 Norte 0 -- -- 64
2020-03-05 12:00:00 7.2 18 Norte 45 Norte 0.2 -- -- 83
2020-03-05 11:00:00 6.4 8 Nordeste 29 Sur 0.8 -- -- 99
2020-03-05 10:00:00 6.2 17 Sudoeste 33 Sudoeste 0.2 -- -- 100
2020-03-05 09:00:00 6.3 21 Sur 43 Sur 0 -- -- 100
2020-03-05 08:00:00 6.2 13 Sudoeste 36 Sudoeste 0 -- -- 100
2020-03-05 07:00:00 6.3 15 Sur 36 Sur 0 -- -- 100
2020-03-05 06:00:00 6.2 18 Sur 30 Sur 0 -- -- 100
2020-03-05 05:00:00 6.4 8 Sudoeste 20 Sudoeste 0 -- -- 99
2020-03-05 04:00:00 6.4 9 Sudoeste 23 Sudoeste 0 -- -- 99
2020-03-05 03:00:00 3.9 6 Sur 10 Sur 0 -- -- 99
2020-03-05 02:00:00 3 3 Sur 7 Sur 0 -- -- 96
2020-03-05 01:00:00 3.8 5 Sur 12 Sudoeste 0 -- -- 92
2020-03-05 00:00:00 4.4 8 Sur 10 Sudoeste 0 -- -- 91
2020-03-04 23:00:00 5.6 3 Sur 18 Sur 0 -- -- 85
2020-03-04 22:00:00 7.4 5 Sudeste 17 Nordeste 0 -- -- 76
2020-03-04 21:00:00 7.4 5 Nordeste 21 Norte 0 -- -- 79
2020-03-04 20:00:00 8.1 5 Nordeste 14 Norte 0 -- -- 76
2020-03-04 19:00:00 9.2 3 Nordeste 24 Norte 0 -- -- 70
2020-03-04 18:00:00 9.7 13 Norte 27 Norte 0 -- -- 68
2020-03-04 17:00:00 10.5 13 Norte 28 Norte 0 -- -- 67
2020-03-04 16:00:00 11.2 15 Norte 29 Norte 0 -- -- 65
2020-03-04 15:00:00 10.8 9 Norte 26 Noroeste 0 -- -- 65
2020-03-04 14:00:00 12.7 13 Noroeste 29 Norte 0 -- -- 59
2020-03-04 13:00:00 11.2 11 Noroeste 28 Norte 0 -- -- 63
2020-03-04 12:00:00 9.6 15 Noroeste 33 Norte 0 -- -- 69
2020-03-04 11:00:00 8.5 8 Noroeste 40 Norte 0 -- -- 76
2020-03-04 10:00:00 7.5 9 Nordeste 24 Oeste 0 -- -- 79
2020-03-04 09:00:00 6.7 8 Norte 17 Norte 0 -- -- 80
2020-03-04 08:00:00 5.8 7 Nordeste 16 Nordeste 0 -- -- 86
2020-03-04 07:00:00 7 9 Nordeste 17 Nordeste 0 -- -- 83
2020-03-04 06:00:00 6.7 6 Este 13 Norte 0 -- -- 85
2020-03-04 05:00:00 8.5 5 Noroeste 18 Este 0 -- -- 82
2020-03-04 04:00:00 8.5 3 Este 20 Sudeste 0 -- -- 88
2020-03-04 03:00:00 9 5 Sudeste 18 Norte 0 -- -- 89
2020-03-04 02:00:00 9.2 5 Este 27 Nordeste 0 -- -- 86
2020-03-04 01:00:00 9.4 9 Norte 25 Norte 0 -- -- 86
2020-03-04 00:00:00 9.5 8 Nordeste 23 Norte 0 -- -- 87
2020-03-03 23:00:00 9.9 9 Nordeste 44 Noroeste 0 -- -- 84
2020-03-03 22:00:00 9.8 12 Norte 27 Norte 0 -- -- 83
2020-03-03 21:00:00 9.6 13 Norte 27 Norte 0 -- -- 85
2020-03-03 20:00:00 9.9 13 Norte 34 Norte 0 -- -- 84
2020-03-03 19:00:00 9.7 11 Norte 26 Norte 0 -- -- 86
2020-03-03 18:00:00 9.8 12 Norte 39 Norte 0 -- -- 85
2020-03-03 17:00:00 10.5 10 Norte 50 Norte 0 -- -- 81
2020-03-03 16:00:00 11.2 9 Noroeste 34 Oeste 0 -- -- 78
2020-03-03 15:00:00 11.3 9 Noroeste 30 Oeste 0 -- -- 76
2020-03-03 14:00:00 10 10 Norte 48 Norte 0 -- -- 80
2020-03-03 13:00:00 9.9 17 Norte 53 Norte 0 -- -- 77
2020-03-03 12:00:00 10.8 19 Noroeste 46 Noroeste 0 -- -- 68
2020-03-03 11:00:00 9.5 14 Norte 38 Norte 0 -- -- 72
2020-03-03 10:00:00 6.6 11 Este 39 Norte 0 -- -- 82
2020-03-03 09:00:00 5.5 12 Norte 28 Sur 0 -- -- 84
2020-03-03 08:00:00 5.6 10 Oeste 35 Sudoeste 0 -- -- 75
2020-03-03 07:00:00 4.8 10 Sur 35 Sur 0 -- -- 71
2020-03-03 06:00:00 2.3 11 Sur 26 Sudeste 0 -- -- 74
2020-03-03 05:00:00 2.3 8 Sur 21 Sudeste 0 -- -- 76
2020-03-03 04:00:00 2.4 5 Este 14 Este 0 -- -- 75
2020-03-03 03:00:00 2.1 5 Sudeste 32 Este 0 -- -- 78
2020-03-03 02:00:00 1.9 9 Nordeste 23 Este 0 -- -- 78
2020-03-03 01:00:00 1.7 9 Sudeste 22 Este 0 -- -- 76
2020-03-03 00:00:00 1 10 Este 29 Nordeste 0 -- -- 78